Decoded Metar for LFOE (EVREUX in FRANCE) (IATA:N/A) | Meteo·Mobile Aviation Weather
aviador You're here:

LFOE Decoded Metar

EVREUX in FRANCE
Report Time2018-09-20 14:00:00
UTC Time2018-09-20 14:12:49
Flight Rules vfr VFR
Wind190° at 15 kt
W.Decomp.*RWY 22: 13.1 kt HW 7.3 kt LCW
W.Rank190° ranks 8
Current wind is above 190° avg. (8.5)
Visibility9999 m
Phenomena:N/A
Clouds:N/A
Expected CloudBase > 5,200 ft AGL from Temp-Dew spread
CeilingNone
Temp25°C (ISA +11)
Dew Point12°C (44% RH)
AAT20.2°C
QNH1015 hPa
Density Alt1,870 ft
Elevation479 ft
Report Wrong Elevation
Raw Report
LFOE 201400Z AUTO 19015KT 170V230 CAVOK 25/12 Q1015 BECMG
22015G25KT=

Extra information for LFOE:More info

Metar Taf Metar & Taf Last 4 Metars F.Rules Stats Wind Profile Meteogram Temp Stats Airport Information Weather charts Add Link Nearby VenuesMetar ALERT Operation Metar Decoded Social comments